sensor_id;sensor_type;location;lat;lon;timestamp;P1;durP1;ratioP1;P2;durP2;ratioP2
25531;SDS011;13429;48.816;9.118;2023-04-25T00:01:41;2.65;;;1.30;;
25531;SDS011;13429;48.816;9.118;2023-04-25T00:04:07;2.95;;;1.30;;
25531;SDS011;13429;48.816;9.118;2023-04-25T00:06:39;2.85;;;1.40;;
25531;SDS011;13429;48.816;9.118;2023-04-25T00:09:05;2.25;;;1.60;;
25531;SDS011;13429;48.816;9.118;2023-04-25T00:11:36;1.67;;;1.55;;
25531;SDS011;13429;48.816;9.118;2023-04-25T00:14:03;2.15;;;1.40;;
25531;SDS011;13429;48.816;9.118;2023-04-25T00:16:29;1.50;;;1.00;;
25531;SDS011;13429;48.816;9.118;2023-04-25T00:18:58;1.45;;;1.17;;
25531;SDS011;13429;48.816;9.118;2023-04-25T00:21:24;1.65;;;1.23;;
25531;SDS011;13429;48.816;9.118;2023-04-25T00:23:50;1.88;;;1.10;;
25531;SDS011;13429;48.816;9.118;2023-04-25T00:26:16;3.60;;;1.55;;
25531;SDS011;13429;48.816;9.118;2023-04-25T00:28:42;1.92;;;1.20;;
25531;SDS011;13429;48.816;9.118;2023-04-25T00:31:08;3.17;;;1.25;;
25531;SDS011;13429;48.816;9.118;2023-04-25T00:33:34;1.88;;;1.10;;
25531;SDS011;13429;48.816;9.118;2023-04-25T00:36:01;2.20;;;1.23;;
25531;SDS011;13429;48.816;9.118;2023-04-25T00:38:27;2.88;;;1.60;;
25531;SDS011;13429;48.816;9.118;2023-04-25T00:40:53;2.72;;;1.30;;
25531;SDS011;13429;48.816;9.118;2023-04-25T00:43:20;2.67;;;1.50;;
25531;SDS011;13429;48.816;9.118;2023-04-25T00:45:46;2.45;;;1.55;;
25531;SDS011;13429;48.816;9.118;2023-04-25T00:48:15;2.45;;;1.52;;
25531;SDS011;13429;48.816;9.118;2023-04-25T00:50:41;3.78;;;1.40;;
25531;SDS011;13429;48.816;9.118;2023-04-25T00:53:07;2.30;;;1.60;;
25531;SDS011;13429;48.816;9.118;2023-04-25T00:55:34;2.45;;;1.27;;
25531;SDS011;13429;48.816;9.118;2023-04-25T00:58:01;3.17;;;1.60;;
25531;SDS011;13429;48.816;9.118;2023-04-25T01:00:27;4.20;;;1.70;;
25531;SDS011;13429;48.816;9.118;2023-04-25T01:02:53;5.93;;;1.60;;
25531;SDS011;13429;48.816;9.118;2023-04-25T01:05:19;3.15;;;1.90;;
25531;SDS011;13429;48.816;9.118;2023-04-25T01:07:45;4.38;;;1.50;;
25531;SDS011;13429;48.816;9.118;2023-04-25T01:10:12;4.05;;;1.73;;
25531;SDS011;13429;48.816;9.118;2023-04-25T01:12:38;2.78;;;1.88;;
25531;SDS011;13429;48.816;9.118;2023-04-25T01:15:04;3.63;;;1.70;;
25531;SDS011;13429;48.816;9.118;2023-04-25T01:17:31;2.90;;;1.80;;
25531;SDS011;13429;48.816;9.118;2023-04-25T01:19:58;5.43;;;2.20;;
25531;SDS011;13429;48.816;9.118;2023-04-25T01:22:24;2.83;;;1.95;;
25531;SDS011;13429;48.816;9.118;2023-04-25T01:24:51;3.03;;;1.98;;
25531;SDS011;13429;48.816;9.118;2023-04-25T01:27:17;5.20;;;2.35;;
25531;SDS011;13429;48.816;9.118;2023-04-25T01:29:43;5.22;;;2.10;;
25531;SDS011;13429;48.816;9.118;2023-04-25T01:32:09;3.03;;;2.22;;
25531;SDS011;13429;48.816;9.118;2023-04-25T01:34:36;5.88;;;2.30;;
25531;SDS011;13429;48.816;9.118;2023-04-25T01:37:02;3.70;;;2.10;;
25531;SDS011;13429;48.816;9.118;2023-04-25T01:39:28;2.13;;;1.73;;
25531;SDS011;13429;48.816;9.118;2023-04-25T01:41:54;4.07;;;2.10;;
25531;SDS011;13429;48.816;9.118;2023-04-25T01:44:20;3.97;;;2.10;;
25531;SDS011;13429;48.816;9.118;2023-04-25T01:46:46;3.92;;;2.30;;
25531;SDS011;13429;48.816;9.118;2023-04-25T01:49:12;3.92;;;2.00;;
25531;SDS011;13429;48.816;9.118;2023-04-25T01:51:38;4.40;;;1.75;;
25531;SDS011;13429;48.816;9.118;2023-04-25T01:54:04;4.72;;;2.08;;
25531;SDS011;13429;48.816;9.118;2023-04-25T01:56:31;3.72;;;2.03;;
25531;SDS011;13429;48.816;9.118;2023-04-25T01:58:57;5.00;;;2.40;;
25531;SDS011;13429;48.816;9.118;2023-04-25T02:01:23;5.32;;;2.58;;
25531;SDS011;13429;48.816;9.118;2023-04-25T02:03:50;6.07;;;2.25;;
25531;SDS011;13429;48.816;9.118;2023-04-25T02:06:16;9.40;;;2.83;;
25531;SDS011;13429;48.816;9.118;2023-04-25T02:08:42;3.67;;;2.17;;
25531;SDS011;13429;48.816;9.118;2023-04-25T02:11:08;4.00;;;2.45;;
25531;SDS011;13429;48.816;9.118;2023-04-25T02:13:34;3.42;;;2.40;;
25531;SDS011;13429;48.816;9.118;2023-04-25T02:16:00;2.40;;;2.00;;
25531;SDS011;13429;48.816;9.118;2023-04-25T02:18:26;3.92;;;2.30;;
25531;SDS011;13429;48.816;9.118;2023-04-25T02:20:53;4.38;;;2.05;;
25531;SDS011;13429;48.816;9.118;2023-04-25T02:23:19;3.45;;;2.33;;
25531;SDS011;13429;48.816;9.118;2023-04-25T02:25:45;4.63;;;2.50;;
25531;SDS011;13429;48.816;9.118;2023-04-25T02:28:11;4.35;;;2.63;;
25531;SDS011;13429;48.816;9.118;2023-04-25T02:30:37;3.25;;;1.63;;
25531;SDS011;13429;48.816;9.118;2023-04-25T02:33:03;4.05;;;1.95;;
25531;SDS011;13429;48.816;9.118;2023-04-25T02:35:29;4.45;;;2.25;;
25531;SDS011;13429;48.816;9.118;2023-04-25T02:37:55;4.47;;;2.65;;
25531;SDS011;13429;48.816;9.118;2023-04-25T02:40:21;4.65;;;2.10;;
25531;SDS011;13429;48.816;9.118;2023-04-25T02:42:47;2.80;;;2.00;;
25531;SDS011;13429;48.816;9.118;2023-04-25T02:45:13;4.95;;;2.45;;
25531;SDS011;13429;48.816;9.118;2023-04-25T02:47:40;5.28;;;2.50;;
25531;SDS011;13429;48.816;9.118;2023-04-25T02:50:06;2.60;;;2.03;;
25531;SDS011;13429;48.816;9.118;2023-04-25T02:52:32;4.78;;;1.98;;
25531;SDS011;13429;48.816;9.118;2023-04-25T02:54:58;2.72;;;1.95;;
25531;SDS011;13429;48.816;9.118;2023-04-25T02:57:24;2.17;;;1.77;;
25531;SDS011;13429;48.816;9.118;2023-04-25T02:59:51;5.60;;;2.30;;
25531;SDS011;13429;48.816;9.118;2023-04-25T03:02:17;4.78;;;2.25;;
25531;SDS011;13429;48.816;9.118;2023-04-25T03:04:43;3.35;;;1.95;;
25531;SDS011;13429;48.816;9.118;2023-04-25T03:07:09;2.72;;;1.98;;
25531;SDS011;13429;48.816;9.118;2023-04-25T03:09:35;3.35;;;1.90;;
25531;SDS011;13429;48.816;9.118;2023-04-25T03:12:01;4.40;;;2.15;;
25531;SDS011;13429;48.816;9.118;2023-04-25T03:14:27;3.63;;;2.55;;
25531;SDS011;13429;48.816;9.118;2023-04-25T03:16:53;4.65;;;1.90;;
25531;SDS011;13429;48.816;9.118;2023-04-25T03:19:19;4.13;;;2.17;;
25531;SDS011;13429;48.816;9.118;2023-04-25T03:21:45;4.43;;;2.28;;
25531;SDS011;13429;48.816;9.118;2023-04-25T03:24:11;4.80;;;2.58;;
25531;SDS011;13429;48.816;9.118;2023-04-25T03:26:38;4.47;;;2.25;;
25531;SDS011;13429;48.816;9.118;2023-04-25T03:29:04;3.90;;;2.40;;
25531;SDS011;13429;48.816;9.118;2023-04-25T03:31:30;5.63;;;2.85;;
25531;SDS011;13429;48.816;9.118;2023-04-25T03:33:56;5.63;;;3.15;;
25531;SDS011;13429;48.816;9.118;2023-04-25T03:36:22;6.25;;;3.03;;
25531;SDS011;13429;48.816;9.118;2023-04-25T03:38:48;4.55;;;2.80;;
25531;SDS011;13429;48.816;9.118;2023-04-25T03:41:15;3.50;;;2.80;;
25531;SDS011;13429;48.816;9.118;2023-04-25T03:43:41;3.83;;;2.33;;
25531;SDS011;13429;48.816;9.118;2023-04-25T03:46:07;5.15;;;2.65;;
25531;SDS011;13429;48.816;9.118;2023-04-25T03:48:33;4.43;;;2.60;;
25531;SDS011;13429;48.816;9.118;2023-04-25T03:50:59;4.75;;;3.33;;
25531;SDS011;13429;48.816;9.118;2023-04-25T03:53:25;6.45;;;3.40;;
25531;SDS011;13429;48.816;9.118;2023-04-25T03:55:51;5.45;;;2.60;;
25531;SDS011;13429;48.816;9.118;2023-04-25T03:58:17;6.63;;;2.47;;
25531;SDS011;13429;48.816;9.118;2023-04-25T04:00:43;5.22;;;2.58;;
25531;SDS011;13429;48.816;9.118;2023-04-25T04:03:09;3.97;;;2.70;;
25531;SDS011;13429;48.816;9.118;2023-04-25T04:05:36;5.50;;;2.72;;
25531;SDS011;13429;48.816;9.118;2023-04-25T04:08:02;4.20;;;2.80;;
25531;SDS011;13429;48.816;9.118;2023-04-25T04:10:28;3.97;;;2.42;;
25531;SDS011;13429;48.816;9.118;2023-04-25T04:12:54;4.95;;;2.92;;
25531;SDS011;13429;48.816;9.118;2023-04-25T04:15:20;5.40;;;3.17;;
25531;SDS011;13429;48.816;9.118;2023-04-25T04:17:47;3.80;;;2.83;;
25531;SDS011;13429;48.816;9.118;2023-04-25T04:20:16;5.63;;;2.55;;
25531;SDS011;13429;48.816;9.118;2023-04-25T04:22:42;4.78;;;3.13;;
25531;SDS011;13429;48.816;9.118;2023-04-25T04:25:08;4.57;;;3.30;;
25531;SDS011;13429;48.816;9.118;2023-04-25T04:27:39;5.47;;;3.35;;
25531;SDS011;13429;48.816;9.118;2023-04-25T04:30:05;6.97;;;3.53;;
25531;SDS011;13429;48.816;9.118;2023-04-25T04:32:32;5.20;;;3.35;;
25531;SDS011;13429;48.816;9.118;2023-04-25T04:34:59;6.03;;;2.85;;
25531;SDS011;13429;48.816;9.118;2023-04-25T04:37:25;6.35;;;3.55;;
25531;SDS011;13429;48.816;9.118;2023-04-25T04:39:51;4.57;;;3.03;;
25531;SDS011;13429;48.816;9.118;2023-04-25T04:42:17;4.13;;;3.13;;
25531;SDS011;13429;48.816;9.118;2023-04-25T04:44:43;7.75;;;3.97;;
25531;SDS011;13429;48.816;9.118;2023-04-25T04:47:09;4.95;;;3.65;;
25531;SDS011;13429;48.816;9.118;2023-04-25T04:49:35;6.07;;;3.85;;
25531;SDS011;13429;48.816;9.118;2023-04-25T04:52:01;6.43;;;3.55;;
25531;SDS011;13429;48.816;9.118;2023-04-25T04:54:27;8.95;;;3.70;;
25531;SDS011;13429;48.816;9.118;2023-04-25T04:56:53;6.32;;;3.60;;
25531;SDS011;13429;48.816;9.118;2023-04-25T04:59:20;9.80;;;4.30;;
25531;SDS011;13429;48.816;9.118;2023-04-25T05:01:46;5.65;;;3.58;;
25531;SDS011;13429;48.816;9.118;2023-04-25T05:04:12;7.28;;;3.65;;
25531;SDS011;13429;48.816;9.118;2023-04-25T05:06:38;6.95;;;3.65;;
25531;SDS011;13429;48.816;9.118;2023-04-25T05:09:05;8.80;;;3.63;;
25531;SDS011;13429;48.816;9.118;2023-04-25T05:11:31;7.03;;;3.58;;
25531;SDS011;13429;48.816;9.118;2023-04-25T05:13:57;5.85;;;3.58;;
25531;SDS011;13429;48.816;9.118;2023-04-25T05:16:23;6.80;;;4.07;;
25531;SDS011;13429;48.816;9.118;2023-04-25T05:18:49;5.65;;;3.72;;
25531;SDS011;13429;48.816;9.118;2023-04-25T05:21:15;5.85;;;3.25;;
25531;SDS011;13429;48.816;9.118;2023-04-25T05:23:41;7.97;;;4.45;;
25531;SDS011;13429;48.816;9.118;2023-04-25T05:26:07;7.90;;;4.35;;
25531;SDS011;13429;48.816;9.118;2023-04-25T05:28:38;6.97;;;4.47;;
25531;SDS011;13429;48.816;9.118;2023-04-25T05:31:04;6.25;;;4.22;;
25531;SDS011;13429;48.816;9.118;2023-04-25T05:33:30;5.53;;;3.88;;
25531;SDS011;13429;48.816;9.118;2023-04-25T05:35:56;6.60;;;4.25;;
25531;SDS011;13429;48.816;9.118;2023-04-25T05:38:22;8.82;;;4.43;;
25531;SDS011;13429;48.816;9.118;2023-04-25T05:40:48;5.07;;;4.13;;
25531;SDS011;13429;48.816;9.118;2023-04-25T05:43:15;7.43;;;4.30;;
25531;SDS011;13429;48.816;9.118;2023-04-25T05:45:41;6.68;;;4.32;;
25531;SDS011;13429;48.816;9.118;2023-04-25T05:48:07;8.40;;;4.32;;
25531;SDS011;13429;48.816;9.118;2023-04-25T05:50:33;4.85;;;3.55;;
25531;SDS011;13429;48.816;9.118;2023-04-25T05:52:59;5.78;;;3.70;;
25531;SDS011;13429;48.816;9.118;2023-04-25T05:55:25;6.95;;;4.03;;
25531;SDS011;13429;48.816;9.118;2023-04-25T05:57:51;5.88;;;3.75;;
25531;SDS011;13429;48.816;9.118;2023-04-25T06:00:17;5.25;;;3.50;;
25531;SDS011;13429;48.816;9.118;2023-04-25T06:02:43;7.32;;;4.53;;
25531;SDS011;13429;48.816;9.118;2023-04-25T06:05:10;5.78;;;4.00;;
25531;SDS011;13429;48.816;9.118;2023-04-25T06:07:36;5.28;;;2.97;;
25531;SDS011;13429;48.816;9.118;2023-04-25T06:10:02;6.10;;;3.67;;
25531;SDS011;13429;48.816;9.118;2023-04-25T06:12:31;4.53;;;3.25;;
25531;SDS011;13429;48.816;9.118;2023-04-25T06:14:58;5.18;;;3.42;;
25531;SDS011;13429;48.816;9.118;2023-04-25T06:17:24;4.88;;;3.33;;
25531;SDS011;13429;48.816;9.118;2023-04-25T06:19:50;6.70;;;3.50;;
25531;SDS011;13429;48.816;9.118;2023-04-25T06:22:16;4.25;;;2.88;;
25531;SDS011;13429;48.816;9.118;2023-04-25T06:24:42;6.03;;;3.63;;
25531;SDS011;13429;48.816;9.118;2023-04-25T06:27:09;5.70;;;3.88;;
25531;SDS011;13429;48.816;9.118;2023-04-25T06:29:38;4.30;;;2.78;;
25531;SDS011;13429;48.816;9.118;2023-04-25T06:32:04;4.68;;;3.22;;
25531;SDS011;13429;48.816;9.118;2023-04-25T06:34:30;5.53;;;2.97;;
25531;SDS011;13429;48.816;9.118;2023-04-25T06:36:56;4.50;;;2.97;;
25531;SDS011;13429;48.816;9.118;2023-04-25T06:39:22;4.10;;;3.30;;
25531;SDS011;13429;48.816;9.118;2023-04-25T06:41:50;6.07;;;3.40;;
25531;SDS011;13429;48.816;9.118;2023-04-25T06:44:16;8.32;;;3.72;;
25531;SDS011;13429;48.816;9.118;2023-04-25T06:46:42;7.88;;;4.07;;
25531;SDS011;13429;48.816;9.118;2023-04-25T06:49:08;5.95;;;3.45;;
25531;SDS011;13429;48.816;9.118;2023-04-25T06:51:34;6.20;;;3.58;;
25531;SDS011;13429;48.816;9.118;2023-04-25T06:54:00;4.28;;;3.28;;
25531;SDS011;13429;48.816;9.118;2023-04-25T06:56:26;5.80;;;3.90;;
25531;SDS011;13429;48.816;9.118;2023-04-25T06:58:54;6.28;;;3.80;;
25531;SDS011;13429;48.816;9.118;2023-04-25T07:01:20;6.28;;;3.60;;
25531;SDS011;13429;48.816;9.118;2023-04-25T07:03:46;7.30;;;4.88;;
25531;SDS011;13429;48.816;9.118;2023-04-25T07:06:12;4.63;;;3.53;;
25531;SDS011;13429;48.816;9.118;2023-04-25T07:08:38;4.65;;;3.70;;
25531;SDS011;13429;48.816;9.118;2023-04-25T07:11:04;6.20;;;3.85;;
25531;SDS011;13429;48.816;9.118;2023-04-25T07:13:30;5.93;;;3.40;;
25531;SDS011;13429;48.816;9.118;2023-04-25T07:15:56;4.97;;;3.38;;
25531;SDS011;13429;48.816;9.118;2023-04-25T07:18:23;6.15;;;3.92;;
25531;SDS011;13429;48.816;9.118;2023-04-25T07:20:49;4.68;;;3.88;;
25531;SDS011;13429;48.816;9.118;2023-04-25T07:23:15;6.43;;;3.55;;
25531;SDS011;13429;48.816;9.118;2023-04-25T07:25:40;9.75;;;4.20;;
25531;SDS011;13429;48.816;9.118;2023-04-25T07:28:07;5.28;;;3.60;;
25531;SDS011;13429;48.816;9.118;2023-04-25T07:30:33;5.20;;;3.88;;
25531;SDS011;13429;48.816;9.118;2023-04-25T07:33:00;4.43;;;3.65;;
25531;SDS011;13429;48.816;9.118;2023-04-25T07:35:26;6.40;;;3.95;;
25531;SDS011;13429;48.816;9.118;2023-04-25T07:37:52;6.78;;;3.83;;
25531;SDS011;13429;48.816;9.118;2023-04-25T07:40:18;6.93;;;4.63;;
25531;SDS011;13429;48.816;9.118;2023-04-25T07:42:44;9.07;;;4.32;;
25531;SDS011;13429;48.816;9.118;2023-04-25T07:45:10;5.30;;;4.03;;
25531;SDS011;13429;48.816;9.118;2023-04-25T07:47:36;6.60;;;4.22;;
25531;SDS011;13429;48.816;9.118;2023-04-25T07:50:03;5.97;;;4.15;;
25531;SDS011;13429;48.816;9.118;2023-04-25T07:52:29;10.48;;;4.38;;
25531;SDS011;13429;48.816;9.118;2023-04-25T07:54:55;4.45;;;3.67;;
25531;SDS011;13429;48.816;9.118;2023-04-25T07:57:22;4.65;;;3.70;;
25531;SDS011;13429;48.816;9.118;2023-04-25T07:59:49;6.10;;;3.95;;
25531;SDS011;13429;48.816;9.118;2023-04-25T08:02:15;6.15;;;3.97;;
25531;SDS011;13429;48.816;9.118;2023-04-25T08:04:41;6.63;;;4.05;;
25531;SDS011;13429;48.816;9.118;2023-04-25T08:07:07;5.95;;;3.83;;
25531;SDS011;13429;48.816;9.118;2023-04-25T08:09:33;9.50;;;4.32;;
25531;SDS011;13429;48.816;9.118;2023-04-25T08:12:00;8.30;;;4.10;;
25531;SDS011;13429;48.816;9.118;2023-04-25T08:14:27;6.18;;;4.15;;
25531;SDS011;13429;48.816;9.118;2023-04-25T08:16:56;5.78;;;3.92;;
25531;SDS011;13429;48.816;9.118;2023-04-25T08:19:22;6.30;;;4.47;;
25531;SDS011;13429;48.816;9.118;2023-04-25T08:21:48;6.35;;;3.70;;
25531;SDS011;13429;48.816;9.118;2023-04-25T08:24:15;6.00;;;4.35;;
25531;SDS011;13429;48.816;9.118;2023-04-25T08:26:41;7.45;;;4.78;;
25531;SDS011;13429;48.816;9.118;2023-04-25T08:29:07;11.98;;;5.13;;
25531;SDS011;13429;48.816;9.118;2023-04-25T08:31:33;6.32;;;4.60;;
25531;SDS011;13429;48.816;9.118;2023-04-25T08:33:59;7.40;;;4.25;;
25531;SDS011;13429;48.816;9.118;2023-04-25T08:36:25;8.15;;;4.90;;
25531;SDS011;13429;48.816;9.118;2023-04-25T08:38:53;6.80;;;4.53;;
25531;SDS011;13429;48.816;9.118;2023-04-25T08:41:19;7.20;;;4.85;;
25531;SDS011;13429;48.816;9.118;2023-04-25T08:43:47;7.85;;;4.13;;
25531;SDS011;13429;48.816;9.118;2023-04-25T08:46:14;8.40;;;4.38;;
25531;SDS011;13429;48.816;9.118;2023-04-25T08:48:43;5.47;;;4.07;;
25531;SDS011;13429;48.816;9.118;2023-04-25T08:51:10;7.45;;;4.18;;
25531;SDS011;13429;48.816;9.118;2023-04-25T08:53:39;5.80;;;3.92;;
25531;SDS011;13429;48.816;9.118;2023-04-25T08:56:07;6.88;;;4.63;;
25531;SDS011;13429;48.816;9.118;2023-04-25T08:58:34;6.55;;;3.97;;
25531;SDS011;13429;48.816;9.118;2023-04-25T09:01:01;7.07;;;4.38;;
25531;SDS011;13429;48.816;9.118;2023-04-25T09:03:27;5.13;;;3.53;;
25531;SDS011;13429;48.816;9.118;2023-04-25T09:05:53;4.95;;;3.83;;
25531;SDS011;13429;48.816;9.118;2023-04-25T09:08:24;5.93;;;3.88;;
25531;SDS011;13429;48.816;9.118;2023-04-25T09:10:50;4.93;;;3.88;;
25531;SDS011;13429;48.816;9.118;2023-04-25T09:13:23;6.38;;;3.50;;
25531;SDS011;13429;48.816;9.118;2023-04-25T09:15:50;7.45;;;3.90;;
25531;SDS011;13429;48.816;9.118;2023-04-25T09:18:27;6.60;;;3.85;;
25531;SDS011;13429;48.816;9.118;2023-04-25T09:20:54;6.82;;;4.03;;
25531;SDS011;13429;48.816;9.118;2023-04-25T09:23:20;4.53;;;3.47;;
25531;SDS011;13429;48.816;9.118;2023-04-25T09:25:47;6.85;;;3.72;;
25531;SDS011;13429;48.816;9.118;2023-04-25T09:28:13;6.57;;;3.67;;
25531;SDS011;13429;48.816;9.118;2023-04-25T09:30:39;5.40;;;3.70;;
25531;SDS011;13429;48.816;9.118;2023-04-25T09:33:10;5.88;;;3.42;;
25531;SDS011;13429;48.816;9.118;2023-04-25T09:38:06;3.90;;;2.97;;
25531;SDS011;13429;48.816;9.118;2023-04-25T09:40:32;4.57;;;3.10;;
25531;SDS011;13429;48.816;9.118;2023-04-25T09:42:58;6.07;;;3.70;;
25531;SDS011;13429;48.816;9.118;2023-04-25T09:45:25;4.70;;;3.17;;
25531;SDS011;13429;48.816;9.118;2023-04-25T09:47:55;5.03;;;3.97;;
25531;SDS011;13429;48.816;9.118;2023-04-25T09:50:22;7.28;;;3.72;;
25531;SDS011;13429;48.816;9.118;2023-04-25T09:53:02;5.55;;;3.45;;
25531;SDS011;13429;48.816;9.118;2023-04-25T09:55:29;4.45;;;2.90;;
25531;SDS011;13429;48.816;9.118;2023-04-25T09:57:55;3.10;;;2.67;;
25531;SDS011;13429;48.816;9.118;2023-04-25T10:00:23;3.22;;;1.95;;
25531;SDS011;13429;48.816;9.118;2023-04-25T10:02:50;2.53;;;1.83;;
25531;SDS011;13429;48.816;9.118;2023-04-25T10:05:17;3.50;;;1.50;;
25531;SDS011;13429;48.816;9.118;2023-04-25T10:07:43;2.83;;;1.55;;
25531;SDS011;13429;48.816;9.118;2023-04-25T10:10:09;2.33;;;1.50;;
25531;SDS011;13429;48.816;9.118;2023-04-25T10:12:38;3.00;;;1.55;;
25531;SDS011;13429;48.816;9.118;2023-04-25T10:15:05;1.95;;;1.10;;
25531;SDS011;13429;48.816;9.118;2023-04-25T10:17:32;2.13;;;1.33;;
25531;SDS011;13429;48.816;9.118;2023-04-25T10:20:00;2.55;;;1.23;;
25531;SDS011;13429;48.816;9.118;2023-04-25T10:22:39;1.58;;;1.10;;
25531;SDS011;13429;48.816;9.118;2023-04-25T10:25:05;2.58;;;1.08;;
25531;SDS011;13429;48.816;9.118;2023-04-25T10:27:33;2.15;;;1.58;;
25531;SDS011;13429;48.816;9.118;2023-04-25T10:30:03;1.65;;;1.20;;
25531;SDS011;13429;48.816;9.118;2023-04-25T10:32:32;2.93;;;2.43;;
25531;SDS011;13429;48.816;9.118;2023-04-25T10:35:09;6.32;;;3.70;;
25531;SDS011;13429;48.816;9.118;2023-04-25T10:37:36;5.88;;;4.40;;
25531;SDS011;13429;48.816;9.118;2023-04-25T10:40:09;6.80;;;4.15;;
25531;SDS011;13429;48.816;9.118;2023-04-25T10:42:35;8.93;;;5.10;;
25531;SDS011;13429;48.816;9.118;2023-04-25T10:45:02;11.82;;;6.20;;
25531;SDS011;13429;48.816;9.118;2023-04-25T10:47:36;8.18;;;5.55;;
25531;SDS011;13429;48.816;9.118;2023-04-25T10:50:06;8.13;;;5.22;;
25531;SDS011;13429;48.816;9.118;2023-04-25T10:52:34;7.75;;;4.68;;
25531;SDS011;13429;48.816;9.118;2023-04-25T10:55:04;9.95;;;5.10;;
25531;SDS011;13429;48.816;9.118;2023-04-25T11:00:15;4.78;;;2.95;;
25531;SDS011;13429;48.816;9.118;2023-04-25T11:02:46;4.18;;;3.03;;
25531;SDS011;13429;48.816;9.118;2023-04-25T11:05:16;4.50;;;2.80;;
25531;SDS011;13429;48.816;9.118;2023-04-25T11:07:45;4.50;;;2.72;;
25531;SDS011;13429;48.816;9.118;2023-04-25T11:10:15;3.67;;;2.67;;
25531;SDS011;13429;48.816;9.118;2023-04-25T11:12:42;4.57;;;2.50;;
25531;SDS011;13429;48.816;9.118;2023-04-25T11:15:09;3.58;;;3.13;;
25531;SDS011;13429;48.816;9.118;2023-04-25T11:17:35;3.85;;;2.85;;
25531;SDS011;13429;48.816;9.118;2023-04-25T11:20:01;3.30;;;2.15;;
25531;SDS011;13429;48.816;9.118;2023-04-25T11:22:32;3.92;;;2.83;;
25531;SDS011;13429;48.816;9.118;2023-04-25T11:25:04;3.78;;;2.42;;
25531;SDS011;13429;48.816;9.118;2023-04-25T11:27:30;3.53;;;2.53;;
25531;SDS011;13429;48.816;9.118;2023-04-25T11:29:56;2.72;;;2.25;;
25531;SDS011;13429;48.816;9.118;2023-04-25T11:32:23;3.22;;;2.15;;
25531;SDS011;13429;48.816;9.118;2023-04-25T11:34:49;2.58;;;2.13;;
25531;SDS011;13429;48.816;9.118;2023-04-25T11:37:15;4.05;;;2.20;;
25531;SDS011;13429;48.816;9.118;2023-04-25T11:39:45;4.45;;;2.80;;
25531;SDS011;13429;48.816;9.118;2023-04-25T11:42:11;3.28;;;2.20;;
25531;SDS011;13429;48.816;9.118;2023-04-25T11:44:38;4.40;;;2.45;;
25531;SDS011;13429;48.816;9.118;2023-04-25T11:47:05;4.72;;;2.88;;
25531;SDS011;13429;48.816;9.118;2023-04-25T11:49:31;4.90;;;3.30;;
25531;SDS011;13429;48.816;9.118;2023-04-25T11:51:57;6.57;;;3.78;;
25531;SDS011;13429;48.816;9.118;2023-04-25T11:54:23;4.00;;;3.00;;
25531;SDS011;13429;48.816;9.118;2023-04-25T11:56:49;5.22;;;3.42;;
25531;SDS011;13429;48.816;9.118;2023-04-25T11:59:15;4.85;;;3.15;;
25531;SDS011;13429;48.816;9.118;2023-04-25T12:01:47;5.97;;;3.47;;
25531;SDS011;13429;48.816;9.118;2023-04-25T12:06:44;5.20;;;3.38;;
25531;SDS011;13429;48.816;9.118;2023-04-25T12:09:13;7.75;;;3.72;;
25531;SDS011;13429;48.816;9.118;2023-04-25T12:11:44;5.72;;;3.72;;
25531;SDS011;13429;48.816;9.118;2023-04-25T12:14:11;5.30;;;3.85;;
25531;SDS011;13429;48.816;9.118;2023-04-25T12:16:41;6.53;;;3.83;;
25531;SDS011;13429;48.816;9.118;2023-04-25T12:19:07;7.97;;;4.35;;
25531;SDS011;13429;48.816;9.118;2023-04-25T12:21:33;8.55;;;4.43;;
25531;SDS011;13429;48.816;9.118;2023-04-25T12:26:48;10.70;;;5.95;;
25531;SDS011;13429;48.816;9.118;2023-04-25T12:29:15;10.15;;;5.57;;
25531;SDS011;13429;48.816;9.118;2023-04-25T12:31:42;8.75;;;6.13;;
25531;SDS011;13429;48.816;9.118;2023-04-25T12:34:08;9.73;;;6.38;;
25531;SDS011;13429;48.816;9.118;2023-04-25T12:36:34;9.57;;;6.25;;
25531;SDS011;13429;48.816;9.118;2023-04-25T12:39:00;8.13;;;5.22;;
25531;SDS011;13429;48.816;9.118;2023-04-25T12:41:29;7.95;;;5.20;;
25531;SDS011;13429;48.816;9.118;2023-04-25T12:43:55;11.25;;;5.25;;
25531;SDS011;13429;48.816;9.118;2023-04-25T12:46:21;8.00;;;5.43;;
25531;SDS011;13429;48.816;9.118;2023-04-25T12:48:48;7.40;;;5.82;;
25531;SDS011;13429;48.816;9.118;2023-04-25T12:51:14;10.23;;;6.22;;
25531;SDS011;13429;48.816;9.118;2023-04-25T12:53:40;9.75;;;6.15;;
25531;SDS011;13429;48.816;9.118;2023-04-25T12:56:07;8.45;;;4.68;;
25531;SDS011;13429;48.816;9.118;2023-04-25T12:58:33;6.75;;;4.95;;
25531;SDS011;13429;48.816;9.118;2023-04-25T13:00:59;8.52;;;5.55;;
25531;SDS011;13429;48.816;9.118;2023-04-25T13:03:25;8.88;;;5.57;;
25531;SDS011;13429;48.816;9.118;2023-04-25T13:05:51;9.90;;;6.13;;
25531;SDS011;13429;48.816;9.118;2023-04-25T13:08:20;9.27;;;6.00;;
25531;SDS011;13429;48.816;9.118;2023-04-25T13:10:49;11.70;;;5.72;;
25531;SDS011;13429;48.816;9.118;2023-04-25T13:13:15;9.40;;;5.90;;
25531;SDS011;13429;48.816;9.118;2023-04-25T13:15:41;8.10;;;5.60;;
25531;SDS011;13429;48.816;9.118;2023-04-25T13:18:07;9.07;;;6.75;;
25531;SDS011;13429;48.816;9.118;2023-04-25T13:20:34;9.77;;;6.85;;
25531;SDS011;13429;48.816;9.118;2023-04-25T13:23:00;11.77;;;6.80;;
25531;SDS011;13429;48.816;9.118;2023-04-25T13:25:26;11.38;;;7.07;;
25531;SDS011;13429;48.816;9.118;2023-04-25T13:27:52;14.80;;;8.43;;
25531;SDS011;13429;48.816;9.118;2023-04-25T13:30:18;15.05;;;8.43;;
25531;SDS011;13429;48.816;9.118;2023-04-25T13:32:44;21.05;;;8.85;;
25531;SDS011;13429;48.816;9.118;2023-04-25T13:35:12;18.65;;;9.68;;
25531;SDS011;13429;48.816;9.118;2023-04-25T13:37:39;14.32;;;8.25;;
25531;SDS011;13429;48.816;9.118;2023-04-25T13:40:08;13.90;;;9.85;;
25531;SDS011;13429;48.816;9.118;2023-04-25T13:42:36;17.63;;;9.27;;
25531;SDS011;13429;48.816;9.118;2023-04-25T13:45:02;18.17;;;11.07;;
25531;SDS011;13429;48.816;9.118;2023-04-25T13:47:28;12.68;;;8.85;;
25531;SDS011;13429;48.816;9.118;2023-04-25T13:49:55;14.70;;;8.90;;
25531;SDS011;13429;48.816;9.118;2023-04-25T13:52:21;11.77;;;8.15;;
25531;SDS011;13429;48.816;9.118;2023-04-25T13:54:49;16.55;;;8.73;;
25531;SDS011;13429;48.816;9.118;2023-04-25T13:57:15;14.02;;;8.10;;
25531;SDS011;13429;48.816;9.118;2023-04-25T13:59:41;17.05;;;7.90;;
25531;SDS011;13429;48.816;9.118;2023-04-25T14:02:08;10.50;;;7.60;;
25531;SDS011;13429;48.816;9.118;2023-04-25T14:04:34;9.43;;;6.78;;
25531;SDS011;13429;48.816;9.118;2023-04-25T14:07:00;11.88;;;8.43;;
25531;SDS011;13429;48.816;9.118;2023-04-25T14:09:27;9.98;;;7.30;;
25531;SDS011;13429;48.816;9.118;2023-04-25T14:11:53;9.45;;;6.03;;
25531;SDS011;13429;48.816;9.118;2023-04-25T14:14:20;10.73;;;7.47;;
25531;SDS011;13429;48.816;9.118;2023-04-25T14:16:46;6.80;;;5.00;;
25531;SDS011;13429;48.816;9.118;2023-04-25T14:19:16;8.93;;;7.45;;
25531;SDS011;13429;48.816;9.118;2023-04-25T14:21:43;10.25;;;6.03;;
25531;SDS011;13429;48.816;9.118;2023-04-25T14:24:09;6.68;;;4.35;;
25531;SDS011;13429;48.816;9.118;2023-04-25T14:26:36;9.10;;;5.32;;
25531;SDS011;13429;48.816;9.118;2023-04-25T14:29:03;12.07;;;5.97;;
25531;SDS011;13429;48.816;9.118;2023-04-25T14:31:29;8.65;;;6.00;;
25531;SDS011;13429;48.816;9.118;2023-04-25T14:33:55;8.30;;;5.68;;
25531;SDS011;13429;48.816;9.118;2023-04-25T14:36:21;10.93;;;6.75;;
25531;SDS011;13429;48.816;9.118;2023-04-25T14:38:47;10.10;;;6.32;;
25531;SDS011;13429;48.816;9.118;2023-04-25T14:41:13;12.55;;;6.10;;
25531;SDS011;13429;48.816;9.118;2023-04-25T14:43:42;9.18;;;5.97;;
25531;SDS011;13429;48.816;9.118;2023-04-25T14:46:08;10.15;;;5.82;;
25531;SDS011;13429;48.816;9.118;2023-04-25T14:48:34;9.20;;;5.80;;
25531;SDS011;13429;48.816;9.118;2023-04-25T14:51:00;7.20;;;5.35;;
25531;SDS011;13429;48.816;9.118;2023-04-25T14:53:27;9.77;;;5.68;;